sensor_id;sensor_type;location;lat;lon;timestamp;P1;durP1;ratioP1;P2;durP2;ratioP2
13404;SDS011;6773;51.192;7.024;2024-02-26T00:01:39;2.50;;;2.37;;
13404;SDS011;6773;51.192;7.024;2024-02-26T00:04:05;3.83;;;2.77;;
13404;SDS011;6773;51.192;7.024;2024-02-26T00:06:31;2.60;;;2.50;;
13404;SDS011;6773;51.192;7.024;2024-02-26T00:08:57;2.40;;;2.30;;
13404;SDS011;6773;51.192;7.024;2024-02-26T00:11:23;2.50;;;2.40;;
13404;SDS011;6773;51.192;7.024;2024-02-26T00:13:49;2.33;;;2.23;;
13404;SDS011;6773;51.192;7.024;2024-02-26T00:16:15;2.43;;;2.33;;
13404;SDS011;6773;51.192;7.024;2024-02-26T00:18:41;2.60;;;2.50;;
13404;SDS011;6773;51.192;7.024;2024-02-26T00:21:07;2.70;;;2.50;;
13404;SDS011;6773;51.192;7.024;2024-02-26T00:23:33;2.60;;;2.40;;
13404;SDS011;6773;51.192;7.024;2024-02-26T00:25:59;2.70;;;2.50;;
13404;SDS011;6773;51.192;7.024;2024-02-26T00:28:25;2.70;;;2.60;;
13404;SDS011;6773;51.192;7.024;2024-02-26T00:30:52;2.80;;;2.60;;
13404;SDS011;6773;51.192;7.024;2024-02-26T00:33:21;2.60;;;2.40;;
13404;SDS011;6773;51.192;7.024;2024-02-26T00:35:47;2.40;;;2.30;;
13404;SDS011;6773;51.192;7.024;2024-02-26T00:38:13;2.47;;;2.37;;
13404;SDS011;6773;51.192;7.024;2024-02-26T00:40:39;2.40;;;2.30;;
13404;SDS011;6773;51.192;7.024;2024-02-26T00:43:08;2.30;;;2.20;;
13404;SDS011;6773;51.192;7.024;2024-02-26T00:45:34;2.40;;;2.30;;
13404;SDS011;6773;51.192;7.024;2024-02-26T00:48:00;2.77;;;2.30;;
13404;SDS011;6773;51.192;7.024;2024-02-26T00:50:32;2.40;;;2.30;;
13404;SDS011;6773;51.192;7.024;2024-02-26T00:52:59;2.77;;;2.50;;
13404;SDS011;6773;51.192;7.024;2024-02-26T00:55:25;2.40;;;2.30;;
13404;SDS011;6773;51.192;7.024;2024-02-26T00:57:51;2.50;;;2.40;;
13404;SDS011;6773;51.192;7.024;2024-02-26T01:00:17;2.77;;;2.57;;
13404;SDS011;6773;51.192;7.024;2024-02-26T01:02:43;2.47;;;2.37;;
13404;SDS011;6773;51.192;7.024;2024-02-26T01:05:11;2.80;;;2.60;;
13404;SDS011;6773;51.192;7.024;2024-02-26T01:07:37;2.30;;;2.10;;
13404;SDS011;6773;51.192;7.024;2024-02-26T01:10:04;2.57;;;2.37;;
13404;SDS011;6773;51.192;7.024;2024-02-26T01:12:31;2.20;;;2.10;;
13404;SDS011;6773;51.192;7.024;2024-02-26T01:15:03;2.43;;;2.20;;
13404;SDS011;6773;51.192;7.024;2024-02-26T01:17:29;2.30;;;2.20;;
13404;SDS011;6773;51.192;7.024;2024-02-26T01:19:55;2.30;;;2.20;;
13404;SDS011;6773;51.192;7.024;2024-02-26T01:22:21;2.10;;;2.00;;
13404;SDS011;6773;51.192;7.024;2024-02-26T01:24:47;2.30;;;2.20;;
13404;SDS011;6773;51.192;7.024;2024-02-26T01:27:13;2.30;;;2.20;;
13404;SDS011;6773;51.192;7.024;2024-02-26T01:29:42;2.47;;;2.27;;
13404;SDS011;6773;51.192;7.024;2024-02-26T01:32:08;2.50;;;2.40;;
13404;SDS011;6773;51.192;7.024;2024-02-26T01:34:34;2.77;;;2.57;;
13404;SDS011;6773;51.192;7.024;2024-02-26T01:37:02;2.40;;;2.20;;
13404;SDS011;6773;51.192;7.024;2024-02-26T01:39:28;2.53;;;2.33;;
13404;SDS011;6773;51.192;7.024;2024-02-26T01:41:56;2.27;;;2.10;;
13404;SDS011;6773;51.192;7.024;2024-02-26T01:44:22;2.63;;;2.43;;
13404;SDS011;6773;51.192;7.024;2024-02-26T01:46:48;2.40;;;2.30;;
13404;SDS011;6773;51.192;7.024;2024-02-26T01:49:14;2.50;;;2.40;;
13404;SDS011;6773;51.192;7.024;2024-02-26T01:51:41;2.50;;;2.40;;
13404;SDS011;6773;51.192;7.024;2024-02-26T01:54:08;2.70;;;2.60;;
13404;SDS011;6773;51.192;7.024;2024-02-26T01:56:35;2.60;;;2.50;;
13404;SDS011;6773;51.192;7.024;2024-02-26T01:59:02;3.00;;;2.90;;
13404;SDS011;6773;51.192;7.024;2024-02-26T02:01:29;2.53;;;2.40;;
13404;SDS011;6773;51.192;7.024;2024-02-26T02:03:59;2.70;;;2.50;;
13404;SDS011;6773;51.192;7.024;2024-02-26T02:06:25;2.70;;;2.60;;
13404;SDS011;6773;51.192;7.024;2024-02-26T02:08:52;2.40;;;2.30;;
13404;SDS011;6773;51.192;7.024;2024-02-26T02:11:20;2.87;;;2.47;;
13404;SDS011;6773;51.192;7.024;2024-02-26T02:13:46;2.30;;;2.20;;
13404;SDS011;6773;51.192;7.024;2024-02-26T02:16:12;2.20;;;2.10;;
13404;SDS011;6773;51.192;7.024;2024-02-26T02:18:38;2.40;;;2.20;;
13404;SDS011;6773;51.192;7.024;2024-02-26T02:21:04;2.40;;;2.20;;
13404;SDS011;6773;51.192;7.024;2024-02-26T02:23:29;2.20;;;2.10;;
13404;SDS011;6773;51.192;7.024;2024-02-26T02:25:56;2.07;;;1.97;;
13404;SDS011;6773;51.192;7.024;2024-02-26T02:28:23;2.00;;;1.90;;
13404;SDS011;6773;51.192;7.024;2024-02-26T02:30:49;3.57;;;2.40;;
13404;SDS011;6773;51.192;7.024;2024-02-26T02:33:15;2.20;;;2.10;;
13404;SDS011;6773;51.192;7.024;2024-02-26T02:35:42;2.00;;;1.90;;
13404;SDS011;6773;51.192;7.024;2024-02-26T02:38:08;1.90;;;1.80;;
13404;SDS011;6773;51.192;7.024;2024-02-26T02:40:34;2.00;;;1.90;;
13404;SDS011;6773;51.192;7.024;2024-02-26T02:43:00;2.50;;;2.03;;
13404;SDS011;6773;51.192;7.024;2024-02-26T02:45:27;2.17;;;2.00;;
13404;SDS011;6773;51.192;7.024;2024-02-26T02:47:53;1.90;;;1.80;;
13404;SDS011;6773;51.192;7.024;2024-02-26T02:50:19;2.00;;;1.90;;
13404;SDS011;6773;51.192;7.024;2024-02-26T02:52:45;2.10;;;1.90;;
13404;SDS011;6773;51.192;7.024;2024-02-26T02:55:11;2.10;;;2.00;;
13404;SDS011;6773;51.192;7.024;2024-02-26T02:57:37;1.83;;;1.73;;
13404;SDS011;6773;51.192;7.024;2024-02-26T03:00:07;5.63;;;1.90;;
13404;SDS011;6773;51.192;7.024;2024-02-26T03:02:33;2.57;;;1.90;;
13404;SDS011;6773;51.192;7.024;2024-02-26T03:05:01;2.47;;;1.90;;
13404;SDS011;6773;51.192;7.024;2024-02-26T03:07:27;2.37;;;1.80;;
13404;SDS011;6773;51.192;7.024;2024-02-26T03:09:54;2.00;;;1.90;;
13404;SDS011;6773;51.192;7.024;2024-02-26T03:12:20;2.00;;;1.90;;
13404;SDS011;6773;51.192;7.024;2024-02-26T03:14:46;2.00;;;1.90;;
13404;SDS011;6773;51.192;7.024;2024-02-26T03:17:12;2.00;;;1.90;;
13404;SDS011;6773;51.192;7.024;2024-02-26T03:19:38;2.00;;;1.90;;
13404;SDS011;6773;51.192;7.024;2024-02-26T03:22:04;2.13;;;1.80;;
13404;SDS011;6773;51.192;7.024;2024-02-26T03:24:30;2.20;;;2.10;;
13404;SDS011;6773;51.192;7.024;2024-02-26T03:26:56;2.00;;;1.90;;
13404;SDS011;6773;51.192;7.024;2024-02-26T03:29:22;1.83;;;1.73;;
13404;SDS011;6773;51.192;7.024;2024-02-26T03:31:48;2.00;;;1.90;;
13404;SDS011;6773;51.192;7.024;2024-02-26T03:34:14;1.90;;;1.80;;
13404;SDS011;6773;51.192;7.024;2024-02-26T03:36:40;1.97;;;1.83;;
13404;SDS011;6773;51.192;7.024;2024-02-26T03:39:07;3.60;;;1.93;;
13404;SDS011;6773;51.192;7.024;2024-02-26T03:41:33;1.90;;;1.80;;
13404;SDS011;6773;51.192;7.024;2024-02-26T03:44:00;1.93;;;1.83;;
13404;SDS011;6773;51.192;7.024;2024-02-26T03:46:26;3.07;;;2.17;;
13404;SDS011;6773;51.192;7.024;2024-02-26T03:48:52;1.90;;;1.80;;
13404;SDS011;6773;51.192;7.024;2024-02-26T03:51:18;1.90;;;1.80;;
13404;SDS011;6773;51.192;7.024;2024-02-26T03:53:44;1.97;;;1.87;;
13404;SDS011;6773;51.192;7.024;2024-02-26T03:56:13;5.03;;;2.10;;
13404;SDS011;6773;51.192;7.024;2024-02-26T03:58:39;2.23;;;2.10;;
13404;SDS011;6773;51.192;7.024;2024-02-26T04:01:08;2.00;;;1.90;;
13404;SDS011;6773;51.192;7.024;2024-02-26T04:03:35;2.13;;;2.00;;
13404;SDS011;6773;51.192;7.024;2024-02-26T04:06:01;2.10;;;2.00;;
13404;SDS011;6773;51.192;7.024;2024-02-26T04:08:28;2.93;;;2.10;;
13404;SDS011;6773;51.192;7.024;2024-02-26T04:10:54;2.33;;;1.70;;
13404;SDS011;6773;51.192;7.024;2024-02-26T04:13:20;1.90;;;1.80;;
13404;SDS011;6773;51.192;7.024;2024-02-26T04:15:46;2.77;;;1.93;;
13404;SDS011;6773;51.192;7.024;2024-02-26T04:18:12;2.27;;;2.07;;
13404;SDS011;6773;51.192;7.024;2024-02-26T04:20:39;2.20;;;2.00;;
13404;SDS011;6773;51.192;7.024;2024-02-26T04:23:07;2.17;;;2.07;;
13404;SDS011;6773;51.192;7.024;2024-02-26T04:25:33;2.27;;;1.77;;
13404;SDS011;6773;51.192;7.024;2024-02-26T04:27:59;2.27;;;2.00;;
13404;SDS011;6773;51.192;7.024;2024-02-26T04:30:25;2.03;;;1.93;;
13404;SDS011;6773;51.192;7.024;2024-02-26T04:32:51;2.20;;;2.00;;
13404;SDS011;6773;51.192;7.024;2024-02-26T04:35:17;2.00;;;1.90;;
13404;SDS011;6773;51.192;7.024;2024-02-26T04:37:43;3.30;;;2.27;;
13404;SDS011;6773;51.192;7.024;2024-02-26T04:40:09;3.30;;;2.10;;
13404;SDS011;6773;51.192;7.024;2024-02-26T04:42:35;2.20;;;2.10;;
13404;SDS011;6773;51.192;7.024;2024-02-26T04:45:01;2.60;;;2.40;;
13404;SDS011;6773;51.192;7.024;2024-02-26T04:47:27;2.40;;;2.20;;
13404;SDS011;6773;51.192;7.024;2024-02-26T04:49:53;2.10;;;2.00;;
13404;SDS011;6773;51.192;7.024;2024-02-26T04:52:19;3.13;;;2.20;;
13404;SDS011;6773;51.192;7.024;2024-02-26T04:54:45;2.13;;;1.97;;
13404;SDS011;6773;51.192;7.024;2024-02-26T04:57:11;2.30;;;2.10;;
13404;SDS011;6773;51.192;7.024;2024-02-26T04:59:37;2.57;;;2.37;;
13404;SDS011;6773;51.192;7.024;2024-02-26T05:02:03;3.17;;;2.57;;
13404;SDS011;6773;51.192;7.024;2024-02-26T05:04:31;2.50;;;2.30;;
13404;SDS011;6773;51.192;7.024;2024-02-26T05:06:57;3.30;;;2.50;;
13404;SDS011;6773;51.192;7.024;2024-02-26T05:09:23;3.37;;;2.40;;
13404;SDS011;6773;51.192;7.024;2024-02-26T05:11:49;2.97;;;2.50;;
13404;SDS011;6773;51.192;7.024;2024-02-26T05:14:15;3.83;;;2.50;;
13404;SDS011;6773;51.192;7.024;2024-02-26T05:16:41;2.40;;;2.30;;
13404;SDS011;6773;51.192;7.024;2024-02-26T05:19:06;2.60;;;2.40;;
13404;SDS011;6773;51.192;7.024;2024-02-26T05:21:32;2.60;;;2.40;;
13404;SDS011;6773;51.192;7.024;2024-02-26T05:23:58;2.60;;;2.40;;
13404;SDS011;6773;51.192;7.024;2024-02-26T05:26:24;2.73;;;2.47;;
13404;SDS011;6773;51.192;7.024;2024-02-26T05:28:51;2.63;;;2.40;;
13404;SDS011;6773;51.192;7.024;2024-02-26T05:31:17;3.60;;;2.40;;
13404;SDS011;6773;51.192;7.024;2024-02-26T05:33:43;2.50;;;2.30;;
13404;SDS011;6773;51.192;7.024;2024-02-26T05:36:10;2.60;;;2.40;;
13404;SDS011;6773;51.192;7.024;2024-02-26T05:38:42;2.50;;;2.30;;
13404;SDS011;6773;51.192;7.024;2024-02-26T05:41:11;2.90;;;2.60;;
13404;SDS011;6773;51.192;7.024;2024-02-26T05:43:37;2.60;;;2.40;;
13404;SDS011;6773;51.192;7.024;2024-02-26T05:46:03;2.93;;;2.50;;
13404;SDS011;6773;51.192;7.024;2024-02-26T05:48:29;2.23;;;2.13;;
13404;SDS011;6773;51.192;7.024;2024-02-26T05:50:57;2.50;;;2.40;;
13404;SDS011;6773;51.192;7.024;2024-02-26T05:53:23;2.80;;;2.60;;
13404;SDS011;6773;51.192;7.024;2024-02-26T05:55:49;3.27;;;2.77;;
13404;SDS011;6773;51.192;7.024;2024-02-26T05:58:15;3.03;;;2.77;;
13404;SDS011;6773;51.192;7.024;2024-02-26T06:00:40;5.13;;;2.80;;
13404;SDS011;6773;51.192;7.024;2024-02-26T06:03:06;2.87;;;2.67;;
13404;SDS011;6773;51.192;7.024;2024-02-26T06:05:32;3.00;;;2.70;;
13404;SDS011;6773;51.192;7.024;2024-02-26T06:07:58;3.03;;;2.73;;
13404;SDS011;6773;51.192;7.024;2024-02-26T06:10:24;2.80;;;2.27;;
13404;SDS011;6773;51.192;7.024;2024-02-26T06:12:50;2.70;;;2.50;;
13404;SDS011;6773;51.192;7.024;2024-02-26T06:15:16;2.90;;;2.67;;
13404;SDS011;6773;51.192;7.024;2024-02-26T06:17:42;3.00;;;2.77;;
13404;SDS011;6773;51.192;7.024;2024-02-26T06:20:08;3.00;;;2.80;;
13404;SDS011;6773;51.192;7.024;2024-02-26T06:22:37;3.00;;;2.70;;
13404;SDS011;6773;51.192;7.024;2024-02-26T06:25:03;3.10;;;2.70;;
13404;SDS011;6773;51.192;7.024;2024-02-26T06:27:29;3.23;;;2.90;;
13404;SDS011;6773;51.192;7.024;2024-02-26T06:29:55;3.63;;;2.80;;
13404;SDS011;6773;51.192;7.024;2024-02-26T06:32:21;3.37;;;3.10;;
13404;SDS011;6773;51.192;7.024;2024-02-26T06:34:48;4.63;;;2.93;;
13404;SDS011;6773;51.192;7.024;2024-02-26T06:37:14;3.57;;;2.87;;
13404;SDS011;6773;51.192;7.024;2024-02-26T06:39:40;3.00;;;2.80;;
13404;SDS011;6773;51.192;7.024;2024-02-26T06:42:06;3.73;;;3.13;;
13404;SDS011;6773;51.192;7.024;2024-02-26T06:44:32;3.83;;;3.10;;
13404;SDS011;6773;51.192;7.024;2024-02-26T06:46:58;3.33;;;3.03;;
13404;SDS011;6773;51.192;7.024;2024-02-26T06:49:25;3.53;;;3.23;;
13404;SDS011;6773;51.192;7.024;2024-02-26T06:51:51;3.70;;;3.10;;
13404;SDS011;6773;51.192;7.024;2024-02-26T06:54:17;3.87;;;3.47;;
13404;SDS011;6773;51.192;7.024;2024-02-26T06:56:43;3.83;;;3.53;;
13404;SDS011;6773;51.192;7.024;2024-02-26T06:59:09;4.33;;;3.60;;
13404;SDS011;6773;51.192;7.024;2024-02-26T07:01:35;5.07;;;3.80;;
13404;SDS011;6773;51.192;7.024;2024-02-26T07:04:01;3.07;;;2.77;;
13404;SDS011;6773;51.192;7.024;2024-02-26T07:06:27;3.80;;;3.50;;
13404;SDS011;6773;51.192;7.024;2024-02-26T07:08:53;3.63;;;3.33;;
13404;SDS011;6773;51.192;7.024;2024-02-26T07:11:19;4.63;;;3.10;;
13404;SDS011;6773;51.192;7.024;2024-02-26T07:13:45;3.60;;;3.30;;
13404;SDS011;6773;51.192;7.024;2024-02-26T07:16:11;3.20;;;2.77;;
13404;SDS011;6773;51.192;7.024;2024-02-26T07:18:38;3.60;;;3.30;;
13404;SDS011;6773;51.192;7.024;2024-02-26T07:21:04;3.77;;;3.37;;
13404;SDS011;6773;51.192;7.024;2024-02-26T07:23:31;4.03;;;3.73;;
13404;SDS011;6773;51.192;7.024;2024-02-26T07:25:57;3.90;;;3.37;;
13404;SDS011;6773;51.192;7.024;2024-02-26T07:28:23;3.40;;;3.10;;
13404;SDS011;6773;51.192;7.024;2024-02-26T07:30:49;3.40;;;3.00;;
13404;SDS011;6773;51.192;7.024;2024-02-26T07:33:15;3.87;;;3.50;;
13404;SDS011;6773;51.192;7.024;2024-02-26T07:35:41;3.90;;;3.20;;
13404;SDS011;6773;51.192;7.024;2024-02-26T07:38:07;3.83;;;3.53;;
13404;SDS011;6773;51.192;7.024;2024-02-26T07:40:33;4.10;;;3.70;;
13404;SDS011;6773;51.192;7.024;2024-02-26T07:42:58;3.30;;;3.00;;
13404;SDS011;6773;51.192;7.024;2024-02-26T07:45:24;5.60;;;2.97;;
13404;SDS011;6773;51.192;7.024;2024-02-26T07:47:50;5.00;;;2.87;;
13404;SDS011;6773;51.192;7.024;2024-02-26T07:50:17;3.37;;;2.87;;
13404;SDS011;6773;51.192;7.024;2024-02-26T07:52:43;3.37;;;2.60;;
13404;SDS011;6773;51.192;7.024;2024-02-26T07:55:09;3.37;;;2.70;;
13404;SDS011;6773;51.192;7.024;2024-02-26T07:57:35;2.67;;;2.50;;
13404;SDS011;6773;51.192;7.024;2024-02-26T08:00:02;2.70;;;2.50;;
13404;SDS011;6773;51.192;7.024;2024-02-26T08:02:28;2.90;;;2.60;;
13404;SDS011;6773;51.192;7.024;2024-02-26T08:04:54;2.70;;;2.50;;
13404;SDS011;6773;51.192;7.024;2024-02-26T08:07:20;3.93;;;2.70;;
13404;SDS011;6773;51.192;7.024;2024-02-26T08:09:46;2.87;;;2.60;;
13404;SDS011;6773;51.192;7.024;2024-02-26T08:12:12;3.60;;;2.80;;
13404;SDS011;6773;51.192;7.024;2024-02-26T08:14:38;3.27;;;2.80;;
13404;SDS011;6773;51.192;7.024;2024-02-26T08:17:03;3.03;;;2.83;;
13404;SDS011;6773;51.192;7.024;2024-02-26T08:19:29;2.80;;;2.60;;
13404;SDS011;6773;51.192;7.024;2024-02-26T08:21:55;3.20;;;2.70;;
13404;SDS011;6773;51.192;7.024;2024-02-26T08:24:22;2.60;;;2.47;;
13404;SDS011;6773;51.192;7.024;2024-02-26T08:26:48;2.80;;;2.53;;
13404;SDS011;6773;51.192;7.024;2024-02-26T08:29:14;5.03;;;2.60;;
13404;SDS011;6773;51.192;7.024;2024-02-26T08:31:39;2.73;;;2.53;;
13404;SDS011;6773;51.192;7.024;2024-02-26T08:34:06;2.80;;;2.60;;
13404;SDS011;6773;51.192;7.024;2024-02-26T08:36:33;3.07;;;2.80;;
13404;SDS011;6773;51.192;7.024;2024-02-26T08:38:59;2.43;;;2.23;;
13404;SDS011;6773;51.192;7.024;2024-02-26T08:41:25;3.17;;;2.87;;
13404;SDS011;6773;51.192;7.024;2024-02-26T08:43:51;2.80;;;2.60;;
13404;SDS011;6773;51.192;7.024;2024-02-26T08:46:17;5.63;;;2.80;;
13404;SDS011;6773;51.192;7.024;2024-02-26T08:48:43;3.30;;;2.70;;
13404;SDS011;6773;51.192;7.024;2024-02-26T08:51:09;2.60;;;2.40;;
13404;SDS011;6773;51.192;7.024;2024-02-26T08:53:35;2.70;;;2.50;;
13404;SDS011;6773;51.192;7.024;2024-02-26T08:56:02;2.50;;;2.30;;
13404;SDS011;6773;51.192;7.024;2024-02-26T08:58:28;2.63;;;2.50;;
13404;SDS011;6773;51.192;7.024;2024-02-26T09:00:54;2.70;;;2.50;;
13404;SDS011;6773;51.192;7.024;2024-02-26T09:03:20;3.63;;;2.90;;
13404;SDS011;6773;51.192;7.024;2024-02-26T09:05:46;2.90;;;2.70;;
13404;SDS011;6773;51.192;7.024;2024-02-26T09:08:12;2.50;;;2.30;;
13404;SDS011;6773;51.192;7.024;2024-02-26T09:10:38;2.60;;;2.40;;
13404;SDS011;6773;51.192;7.024;2024-02-26T09:13:04;4.83;;;2.60;;
13404;SDS011;6773;51.192;7.024;2024-02-26T09:15:30;3.63;;;2.60;;
13404;SDS011;6773;51.192;7.024;2024-02-26T09:17:57;2.90;;;2.60;;
13404;SDS011;6773;51.192;7.024;2024-02-26T09:20:22;2.73;;;2.50;;
13404;SDS011;6773;51.192;7.024;2024-02-26T09:22:49;4.53;;;2.97;;
13404;SDS011;6773;51.192;7.024;2024-02-26T09:25:15;2.90;;;2.70;;
13404;SDS011;6773;51.192;7.024;2024-02-26T09:27:42;2.70;;;2.50;;
13404;SDS011;6773;51.192;7.024;2024-02-26T09:30:11;3.37;;;2.80;;
13404;SDS011;6773;51.192;7.024;2024-02-26T09:32:37;2.80;;;2.60;;
13404;SDS011;6773;51.192;7.024;2024-02-26T09:35:04;4.53;;;2.73;;
13404;SDS011;6773;51.192;7.024;2024-02-26T09:37:30;3.10;;;2.53;;
13404;SDS011;6773;51.192;7.024;2024-02-26T09:39:56;2.90;;;2.67;;
13404;SDS011;6773;51.192;7.024;2024-02-26T09:42:24;3.33;;;2.70;;
13404;SDS011;6773;51.192;7.024;2024-02-26T09:44:51;4.03;;;2.73;;
13404;SDS011;6773;51.192;7.024;2024-02-26T09:47:20;3.10;;;2.80;;
13404;SDS011;6773;51.192;7.024;2024-02-26T09:49:47;5.00;;;3.00;;
13404;SDS011;6773;51.192;7.024;2024-02-26T09:52:14;3.07;;;2.77;;
13404;SDS011;6773;51.192;7.024;2024-02-26T09:54:41;3.90;;;3.00;;
13404;SDS011;6773;51.192;7.024;2024-02-26T09:57:11;3.13;;;2.80;;
13404;SDS011;6773;51.192;7.024;2024-02-26T09:59:41;3.13;;;2.80;;
13404;SDS011;6773;51.192;7.024;2024-02-26T10:02:14;2.97;;;2.70;;
13404;SDS011;6773;51.192;7.024;2024-02-26T10:04:40;4.10;;;3.00;;
13404;SDS011;6773;51.192;7.024;2024-02-26T10:07:10;3.00;;;2.70;;
13404;SDS011;6773;51.192;7.024;2024-02-26T10:09:37;3.73;;;2.80;;
13404;SDS011;6773;51.192;7.024;2024-02-26T10:12:04;2.83;;;2.63;;
13404;SDS011;6773;51.192;7.024;2024-02-26T10:14:30;2.93;;;2.73;;
13404;SDS011;6773;51.192;7.024;2024-02-26T10:16:56;3.70;;;3.40;;
13404;SDS011;6773;51.192;7.024;2024-02-26T10:19:26;3.43;;;2.87;;
13404;SDS011;6773;51.192;7.024;2024-02-26T10:21:55;4.20;;;3.37;;
13404;SDS011;6773;51.192;7.024;2024-02-26T10:24:22;3.17;;;2.87;;
13404;SDS011;6773;51.192;7.024;2024-02-26T10:26:48;3.17;;;2.90;;
13404;SDS011;6773;51.192;7.024;2024-02-26T10:29:14;3.17;;;2.80;;
13404;SDS011;6773;51.192;7.024;2024-02-26T10:31:42;3.60;;;3.30;;
13404;SDS011;6773;51.192;7.024;2024-02-26T10:34:08;3.40;;;3.10;;
13404;SDS011;6773;51.192;7.024;2024-02-26T10:36:34;3.87;;;3.17;;
13404;SDS011;6773;51.192;7.024;2024-02-26T10:39:03;3.37;;;3.07;;
13404;SDS011;6773;51.192;7.024;2024-02-26T10:41:30;4.93;;;3.43;;
13404;SDS011;6773;51.192;7.024;2024-02-26T10:43:56;3.53;;;3.10;;
13404;SDS011;6773;51.192;7.024;2024-02-26T10:46:22;3.33;;;3.03;;
13404;SDS011;6773;51.192;7.024;2024-02-26T10:48:51;5.93;;;3.20;;
13404;SDS011;6773;51.192;7.024;2024-02-26T10:51:24;3.10;;;2.80;;
13404;SDS011;6773;51.192;7.024;2024-02-26T10:53:53;3.20;;;2.90;;
13404;SDS011;6773;51.192;7.024;2024-02-26T10:56:24;3.70;;;3.00;;
13404;SDS011;6773;51.192;7.024;2024-02-26T10:58:50;2.97;;;2.70;;
13404;SDS011;6773;51.192;7.024;2024-02-26T11:01:16;3.20;;;2.77;;
13404;SDS011;6773;51.192;7.024;2024-02-26T11:03:44;4.33;;;3.20;;
13404;SDS011;6773;51.192;7.024;2024-02-26T11:06:10;3.30;;;3.00;;
13404;SDS011;6773;51.192;7.024;2024-02-26T11:08:38;3.53;;;3.00;;
13404;SDS011;6773;51.192;7.024;2024-02-26T11:11:05;3.50;;;3.20;;
13404;SDS011;6773;51.192;7.024;2024-02-26T11:13:31;5.23;;;3.47;;
13404;SDS011;6773;51.192;7.024;2024-02-26T11:15:57;4.27;;;3.87;;
13404;SDS011;6773;51.192;7.024;2024-02-26T11:18:24;4.07;;;3.70;;
13404;SDS011;6773;51.192;7.024;2024-02-26T11:20:52;4.90;;;4.00;;
13404;SDS011;6773;51.192;7.024;2024-02-26T11:23:22;4.03;;;3.67;;
13404;SDS011;6773;51.192;7.024;2024-02-26T11:25:49;4.30;;;3.70;;
13404;SDS011;6773;51.192;7.024;2024-02-26T11:28:16;4.40;;;4.00;;
13404;SDS011;6773;51.192;7.024;2024-02-26T11:30:45;4.97;;;4.57;;
13404;SDS011;6773;51.192;7.024;2024-02-26T11:33:12;4.40;;;4.00;;
13404;SDS011;6773;51.192;7.024;2024-02-26T11:35:39;4.90;;;4.40;;
13404;SDS011;6773;51.192;7.024;2024-02-26T11:38:06;5.23;;;4.73;;
13404;SDS011;6773;51.192;7.024;2024-02-26T11:40:32;6.93;;;5.20;;
13404;SDS011;6773;51.192;7.024;2024-02-26T11:42:59;5.17;;;4.43;;
13404;SDS011;6773;51.192;7.024;2024-02-26T11:50:46;4.50;;;4.10;;
13404;SDS011;6773;51.192;7.024;2024-02-26T11:53:25;5.13;;;4.63;;
13404;SDS011;6773;51.192;7.024;2024-02-26T11:58:38;5.33;;;4.83;;
13404;SDS011;6773;51.192;7.024;2024-02-26T12:01:05;5.63;;;5.03;;
13404;SDS011;6773;51.192;7.024;2024-02-26T12:03:31;6.93;;;5.93;;
13404;SDS011;6773;51.192;7.024;2024-02-26T12:05:57;5.23;;;4.73;;
13404;SDS011;6773;51.192;7.024;2024-02-26T12:08:23;8.47;;;5.37;;
13404;SDS011;6773;51.192;7.024;2024-02-26T12:10:50;6.23;;;5.63;;
13404;SDS011;6773;51.192;7.024;2024-02-26T12:13:19;5.97;;;5.40;;
13404;SDS011;6773;51.192;7.024;2024-02-26T12:15:54;5.60;;;4.93;;
13404;SDS011;6773;51.192;7.024;2024-02-26T12:18:22;6.57;;;5.33;;
13404;SDS011;6773;51.192;7.024;2024-02-26T12:21:09;7.07;;;6.37;;
13404;SDS011;6773;51.192;7.024;2024-02-26T12:23:37;6.30;;;5.53;;
13404;SDS011;6773;51.192;7.024;2024-02-26T12:26:03;6.57;;;5.83;;
13404;SDS011;6773;51.192;7.024;2024-02-26T12:28:30;7.93;;;5.97;;
13404;SDS011;6773;51.192;7.024;2024-02-26T12:30:56;9.40;;;6.67;;
13404;SDS011;6773;51.192;7.024;2024-02-26T12:33:24;10.27;;;6.93;;
13404;SDS011;6773;51.192;7.024;2024-02-26T12:35:51;8.40;;;6.27;;
13404;SDS011;6773;51.192;7.024;2024-02-26T12:38:17;7.83;;;7.03;;
13404;SDS011;6773;51.192;7.024;2024-02-26T12:40:43;8.90;;;7.30;;
13404;SDS011;6773;51.192;7.024;2024-02-26T12:43:09;7.90;;;6.93;;
13404;SDS011;6773;51.192;7.024;2024-02-26T12:45:42;9.27;;;7.43;;
13404;SDS011;6773;51.192;7.024;2024-02-26T12:48:12;11.97;;;7.90;;
13404;SDS011;6773;51.192;7.024;2024-02-26T12:50:39;11.67;;;8.10;;
13404;SDS011;6773;51.192;7.024;2024-02-26T12:53:05;10.30;;;8.27;;
13404;SDS011;6773;51.192;7.024;2024-02-26T12:55:31;11.77;;;7.90;;
13404;SDS011;6773;51.192;7.024;2024-02-26T12:57:59;9.67;;;8.20;;
13404;SDS011;6773;51.192;7.024;2024-02-26T13:00:27;12.43;;;9.20;;
13404;SDS011;6773;51.192;7.024;2024-02-26T13:02:56;12.17;;;9.13;;
13404;SDS011;6773;51.192;7.024;2024-02-26T13:05:24;10.60;;;9.07;;
13404;SDS011;6773;51.192;7.024;2024-02-26T13:07:50;12.73;;;9.33;;
13404;SDS011;6773;51.192;7.024;2024-02-26T13:10:18;11.40;;;9.20;;
13404;SDS011;6773;51.192;7.024;2024-02-26T13:12:46;10.73;;;8.90;;
13404;SDS011;6773;51.192;7.024;2024-02-26T13:15:19;14.73;;;10.23;;
13404;SDS011;6773;51.192;7.024;2024-02-26T13:17:46;12.53;;;9.30;;
13404;SDS011;6773;51.192;7.024;2024-02-26T13:20:13;12.50;;;9.40;;
13404;SDS011;6773;51.192;7.024;2024-02-26T13:22:50;11.83;;;8.93;;
13404;SDS011;6773;51.192;7.024;2024-02-26T13:25:20;12.97;;;9.37;;
13404;SDS011;6773;51.192;7.024;2024-02-26T13:27:46;11.77;;;9.20;;
13404;SDS011;6773;51.192;7.024;2024-02-26T13:30:12;11.47;;;9.13;;
13404;SDS011;6773;51.192;7.024;2024-02-26T13:32:39;12.73;;;8.93;;
13404;SDS011;6773;51.192;7.024;2024-02-26T13:35:10;13.20;;;9.37;;
13404;SDS011;6773;51.192;7.024;2024-02-26T13:37:36;10.30;;;8.17;;
13404;SDS011;6773;51.192;7.024;2024-02-26T13:40:06;11.63;;;9.13;;
13404;SDS011;6773;51.192;7.024;2024-02-26T13:42:33;11.00;;;8.97;;
13404;SDS011;6773;51.192;7.024;2024-02-26T13:45:00;11.73;;;8.70;;
13404;SDS011;6773;51.192;7.024;2024-02-26T13:47:26;11.47;;;9.03;;
13404;SDS011;6773;51.192;7.024;2024-02-26T13:49:52;11.90;;;8.93;;
13404;SDS011;6773;51.192;7.024;2024-02-26T13:52:18;13.33;;;8.37;;
13404;SDS011;6773;51.192;7.024;2024-02-26T13:54:45;12.80;;;8.63;;
13404;SDS011;6773;51.192;7.024;2024-02-26T13:57:11;11.50;;;8.27;;
13404;SDS011;6773;51.192;7.024;2024-02-26T13:59:37;9.13;;;7.80;;
13404;SDS011;6773;51.192;7.024;2024-02-26T14:02:07;7.90;;;6.83;;
13404;SDS011;6773;51.192;7.024;2024-02-26T14:04:33;8.23;;;6.50;;
13404;SDS011;6773;51.192;7.024;2024-02-26T14:06:59;9.20;;;7.37;;
13404;SDS011;6773;51.192;7.024;2024-02-26T14:09:25;9.10;;;7.50;;
13404;SDS011;6773;51.192;7.024;2024-02-26T14:11:51;9.47;;;7.77;;
13404;SDS011;6773;51.192;7.024;2024-02-26T14:14:17;8.10;;;6.47;;
13404;SDS011;6773;51.192;7.024;2024-02-26T14:16:43;8.97;;;7.03;;
13404;SDS011;6773;51.192;7.024;2024-02-26T14:19:09;9.50;;;7.33;;
13404;SDS011;6773;51.192;7.024;2024-02-26T14:21:35;7.80;;;6.60;;
13404;SDS011;6773;51.192;7.024;2024-02-26T14:24:01;8.10;;;7.10;;
13404;SDS011;6773;51.192;7.024;2024-02-26T14:26:27;8.73;;;7.83;;
13404;SDS011;6773;51.192;7.024;2024-02-26T14:28:53;10.63;;;8.00;;
13404;SDS011;6773;51.192;7.024;2024-02-26T14:31:19;10.53;;;8.17;;
13404;SDS011;6773;51.192;7.024;2024-02-26T14:33:45;10.80;;;8.17;;
13404;SDS011;6773;51.192;7.024;2024-02-26T14:36:11;10.77;;;8.50;;
13404;SDS011;6773;51.192;7.024;2024-02-26T14:38:37;11.73;;;8.43;;
13404;SDS011;6773;51.192;7.024;2024-02-26T14:41:04;10.67;;;8.77;;
13404;SDS011;6773;51.192;7.024;2024-02-26T14:43:30;9.50;;;8.50;;
13404;SDS011;6773;51.192;7.024;2024-02-26T14:45:59;10.37;;;9.27;;
13404;SDS011;6773;51.192;7.024;2024-02-26T14:48:25;11.83;;;8.23;;
13404;SDS011;6773;51.192;7.024;2024-02-26T14:50:51;10.63;;;9.07;;
13404;SDS011;6773;51.192;7.024;2024-02-26T14:53:17;10.93;;;9.23;;
13404;SDS011;6773;51.192;7.024;2024-02-26T14:55:43;10.07;;;8.43;;
13404;SDS011;6773;51.192;7.024;2024-02-26T14:58:09;8.93;;;7.53;;
13404;SDS011;6773;51.192;7.024;2024-02-26T15:00:36;11.90;;;7.80;;
13404;SDS011;6773;51.192;7.024;2024-02-26T15:03:02;9.57;;;7.50;;
13404;SDS011;6773;51.192;7.024;2024-02-26T15:05:28;7.83;;;7.03;;